Time;durP1;ratioP1;P1;durP2;ratioP2;P2;SDS_P1;SDS_P2;PMS_P1;PMS_P2;Temp;Humidity;BMP_temperature;BMP_pressure;BME280_temperature;BME280_humidity;BME280_pressure;Samples;Min_cycle;Max_cycle;Signal;HPM_P1;HPM_P2
2021/09/08 00:00:46;;;;;;;3.33;3.00;;;;;;;13.96;100.00;101078.28;5132710;27;20632;-73
2021/09/08 00:03:11;;;;;;;3.73;3.20;;;;;;;13.83;100.00;101070.94;5132737;27;20555;-73
2021/09/08 00:05:37;;;;;;;4.20;3.80;;;;;;;13.69;100.00;101069.13;5132498;27;20237;-73
2021/09/08 00:08:03;;;;;;;3.40;3.10;;;;;;;13.69;100.00;101071.06;5132545;27;20168;-74
2021/09/08 00:10:28;;;;;;;3.57;3.10;;;;;;;13.52;100.00;101071.81;5132631;27;20204;-74
2021/09/08 00:12:54;;;;;;;6.00;3.70;;;;;;;13.64;100.00;101072.03;5132631;27;20202;-73
2021/09/08 00:15:19;;;;;;;3.83;3.40;;;;;;;13.71;100.00;101071.56;5132225;27;20212;-73
2021/09/08 00:17:45;;;;;;;3.93;3.37;;;;;;;13.65;100.00;101070.88;5132387;27;20244;-73
2021/09/08 00:20:10;;;;;;;3.17;2.97;;;;;;;13.61;100.00;101067.16;5114036;27;20635;-73
2021/09/08 00:22:37;;;;;;;4.10;3.70;;;;;;;13.59;100.00;101069.41;5132372;27;20180;-73
2021/09/08 00:25:05;;;;;;;3.80;3.30;;;;;;;13.59;100.00;101080.38;5132117;27;20217;-73
2021/09/08 00:27:30;;;;;;;3.63;3.33;;;;;;;13.58;100.00;101072.47;5132343;27;20264;-73
2021/09/08 00:29:55;;;;;;;4.00;3.60;;;;;;;13.51;100.00;101077.59;5132173;27;20247;-73
2021/09/08 00:32:21;;;;;;;3.37;3.13;;;;;;;13.42;100.00;101068.50;5132180;27;20249;-73
2021/09/08 00:34:46;;;;;;;3.63;3.23;;;;;;;13.30;100.00;101078.13;5132018;27;20176;-73
2021/09/08 00:37:11;;;;;;;3.67;3.13;;;;;;;13.31;100.00;101078.97;5132139;27;20230;-73
2021/09/08 00:39:37;;;;;;;5.03;3.40;;;;;;;13.20;100.00;101075.66;5132114;27;20255;-73
2021/09/08 00:42:12;;;;;;;3.50;3.10;;;;;;;13.11;100.00;101067.34;5132437;27;20176;-73
2021/09/08 00:44:38;;;;;;;6.87;3.50;;;;;;;13.14;100.00;101070.56;5131751;27;20164;-73
2021/09/08 00:47:05;;;;;;;4.20;3.83;;;;;;;13.13;100.00;101061.53;5131645;27;20256;-73
2021/09/08 00:49:30;;;;;;;3.83;3.50;;;;;;;13.18;100.00;101063.34;5131787;27;20533;-73
2021/09/08 00:51:56;;;;;;;4.37;3.97;;;;;;;13.22;100.00;101072.59;5131735;27;20211;-73
2021/09/08 00:54:23;;;;;;;3.77;3.47;;;;;;;13.26;100.00;101070.84;5131659;27;20504;-73
2021/09/08 00:56:53;;;;;;;4.07;3.73;;;;;;;13.24;100.00;101062.94;5131815;27;20184;-73
2021/09/08 00:59:20;;;;;;;5.23;3.70;;;;;;;13.16;100.00;101068.31;5131649;27;20168;-73
2021/09/08 01:01:45;;;;;;;3.67;3.37;;;;;;;13.07;100.00;101069.09;5132181;27;20169;-74
2021/09/08 01:04:11;;;;;;;4.60;3.33;;;;;;;13.05;100.00;101062.31;5131637;27;20667;-72
2021/09/08 01:06:36;;;;;;;5.27;3.80;;;;;;;13.04;100.00;101066.16;5131757;27;20180;-73
2021/09/08 01:09:04;;;;;;;3.93;3.37;;;;;;;13.10;100.00;101053.94;5131138;27;20515;-73
2021/09/08 01:11:29;;;;;;;4.17;3.87;;;;;;;13.17;100.00;101056.25;5131466;27;20208;-73
2021/09/08 01:13:55;;;;;;;5.17;3.90;;;;;;;13.18;100.00;101055.13;5131319;28;20164;-73
2021/09/08 01:16:20;;;;;;;3.33;3.03;;;;;;;13.16;100.00;101049.91;5131469;28;20173;-73
2021/09/08 01:18:46;;;;;;;5.23;3.63;;;;;;;13.18;100.00;101046.91;5131445;28;20165;-74
2021/09/08 01:21:11;;;;;;;3.57;3.27;;;;;;;13.15;100.00;101048.31;5131731;28;20631;-73
2021/09/08 01:23:37;;;;;;;3.83;3.53;;;;;;;13.20;100.00;101045.47;5131553;28;20469;-74
2021/09/08 01:26:03;;;;;;;3.97;3.67;;;;;;;13.17;100.00;101045.28;5131351;28;20708;-73
2021/09/08 01:28:29;;;;;;;4.03;3.03;;;;;;;13.13;100.00;101036.03;5131425;28;20557;-74
2021/09/08 01:30:56;;;;;;;3.87;3.47;;;;;;;13.11;100.00;101044.56;5131283;28;20196;-74
2021/09/08 01:33:22;;;;;;;7.23;3.40;;;;;;;13.02;100.00;101043.72;5131386;28;20172;-73
2021/09/08 01:35:47;;;;;;;3.90;3.50;;;;;;;13.01;100.00;101051.13;5131147;28;20219;-73
2021/09/08 01:38:14;;;;;;;3.37;3.07;;;;;;;13.01;100.00;101042.09;5131225;28;20184;-73
2021/09/08 01:40:39;;;;;;;4.23;3.83;;;;;;;12.97;100.00;101036.41;5131813;28;20195;-73
2021/09/08 01:43:05;;;;;;;5.17;3.40;;;;;;;12.85;100.00;101038.91;5131302;28;20809;-74
2021/09/08 01:45:31;;;;;;;4.17;3.80;;;;;;;12.73;100.00;101042.25;5131189;28;20257;-73
2021/09/08 01:47:56;;;;;;;3.93;3.07;;;;;;;12.66;100.00;101041.03;5130900;28;20210;-74
2021/09/08 01:50:23;;;;;;;4.70;3.57;;;;;;;12.52;100.00;101041.09;5131147;28;20189;-73
2021/09/08 01:52:49;;;;;;;4.30;3.90;;;;;;;12.42;100.00;101041.31;5131253;28;20251;-73
2021/09/08 01:55:15;;;;;;;4.30;3.90;;;;;;;12.31;100.00;101035.28;5131027;28;20287;-73
2021/09/08 01:57:40;;;;;;;4.30;3.87;;;;;;;12.27;100.00;101049.88;5131838;28;20164;-73
2021/09/08 02:00:08;;;;;;;5.97;4.27;;;;;;;12.32;100.00;101047.03;5138545;28;20184;-73
2021/09/08 02:02:34;;;;;;;5.53;3.77;;;;;;;12.40;100.00;101055.31;5138765;28;20176;-74
2021/09/08 02:05:00;;;;;;;4.33;3.87;;;;;;;12.39;100.00;101050.97;5132350;28;20643;-74
2021/09/08 02:07:25;;;;;;;4.47;3.83;;;;;;;12.28;100.00;101057.78;5131832;28;20182;-74
2021/09/08 02:09:50;;;;;;;3.87;3.53;;;;;;;12.24;100.00;101055.97;5131128;28;20649;-73
2021/09/08 02:12:16;;;;;;;4.53;3.57;;;;;;;12.32;100.00;101055.25;5131577;28;20615;-74
2021/09/08 02:14:41;;;;;;;4.63;4.23;;;;;;;12.37;100.00;101052.41;5131061;28;20248;-74
2021/09/08 02:17:07;;;;;;;4.13;3.77;;;;;;;12.40;100.00;101051.78;5131102;28;20520;-74
2021/09/08 02:19:32;;;;;;;4.03;3.70;;;;;;;12.45;100.00;101052.50;5132218;27;20169;-74
2021/09/08 02:21:58;;;;;;;6.87;5.00;;;;;;;12.51;100.00;101050.44;5134810;27;20789;-73
2021/09/08 02:24:23;;;;;;;3.50;3.20;;;;;;;12.56;100.00;101050.31;5134770;27;20214;-74
2021/09/08 02:26:48;;;;;;;4.03;3.73;;;;;;;12.57;100.00;101053.84;5134778;27;20411;-73
2021/09/08 02:29:14;;;;;;;4.43;4.03;;;;;;;12.54;100.00;101047.06;5134659;27;20176;-73
2021/09/08 02:31:39;;;;;;;3.80;3.50;;;;;;;12.52;100.00;101039.16;5134591;27;20200;-74
2021/09/08 02:34:05;;;;;;;4.50;3.80;;;;;;;12.52;100.00;101041.91;5115906;27;20243;-74
2021/09/08 02:36:30;;;;;;;4.83;4.43;;;;;;;12.56;100.00;101042.06;5134455;27;20180;-73
2021/09/08 02:38:55;;;;;;;5.37;3.70;;;;;;;12.58;100.00;101039.03;5134502;27;20552;-74
2021/09/08 02:41:23;;;;;;;4.20;3.80;;;;;;;12.65;100.00;101029.25;5134459;27;20251;-73
2021/09/08 02:43:49;;;;;;;5.40;3.77;;;;;;;12.69;100.00;101013.00;5134319;27;20202;-73
2021/09/08 02:46:14;;;;;;;4.10;3.67;;;;;;;12.71;100.00;101014.28;5134185;27;20164;-74
2021/09/08 02:48:40;;;;;;;4.93;3.80;;;;;;;12.66;100.00;101013.63;5134205;27;20172;-73
2021/09/08 02:51:05;;;;;;;4.10;3.70;;;;;;;12.57;100.00;101016.28;5134211;27;20661;-74
2021/09/08 02:53:31;;;;;;;6.10;4.20;;;;;;;12.58;100.00;101008.88;5134232;27;20180;-74
2021/09/08 02:55:56;;;;;;;4.03;3.63;;;;;;;12.55;100.00;101009.50;5134026;27;20172;-74
2021/09/08 02:58:22;;;;;;;4.37;3.90;;;;;;;12.57;100.00;101002.56;5134125;27;20173;-74
2021/09/08 03:00:48;;;;;;;3.77;3.47;;;;;;;12.58;100.00;100998.72;5134017;27;20247;-74
2021/09/08 03:03:13;;;;;;;4.67;4.20;;;;;;;12.59;100.00;100996.81;5134238;27;20305;-74
2021/09/08 03:05:39;;;;;;;3.97;3.63;;;;;;;12.56;100.00;101002.91;5133722;27;20192;-73
2021/09/08 03:08:04;;;;;;;4.50;3.93;;;;;;;12.65;100.00;100998.28;5133998;27;20177;-74
2021/09/08 03:10:34;;;;;;;4.33;3.93;;;;;;;12.69;100.00;101000.09;5115461;27;20404;-74
2021/09/08 03:12:59;;;;;;;3.60;3.30;;;;;;;12.68;100.00;100997.66;5133839;27;20191;-74
2021/09/08 03:15:25;;;;;;;4.43;4.03;;;;;;;12.68;100.00;100995.72;5133666;27;20619;-73
2021/09/08 03:17:50;;;;;;;4.83;4.33;;;;;;;12.65;100.00;100998.28;5133788;27;20176;-74
2021/09/08 03:20:15;;;;;;;3.87;3.57;;;;;;;12.64;100.00;100991.19;5133697;27;20169;-74
2021/09/08 03:22:41;;;;;;;4.03;3.67;;;;;;;12.49;100.00;101004.16;5133666;27;20184;-73
2021/09/08 03:25:08;;;;;;;3.70;3.40;;;;;;;12.34;100.00;100995.47;5133471;27;20165;-73
2021/09/08 03:27:33;;;;;;;4.30;3.83;;;;;;;12.15;100.00;100996.44;5133495;27;20171;-73
2021/09/08 03:29:58;;;;;;;3.63;3.33;;;;;;;12.06;100.00;100981.84;5133401;27;20576;-74
2021/09/08 03:32:24;;;;;;;4.17;3.30;;;;;;;12.09;100.00;101002.34;5133188;27;20213;-74
2021/09/08 03:34:49;;;;;;;4.27;3.87;;;;;;;12.07;100.00;101002.66;5133178;27;20169;-74
2021/09/08 03:37:14;;;;;;;5.40;4.90;;;;;;;12.08;100.00;100998.78;5133264;27;20168;-74
2021/09/08 03:39:40;;;;;;;5.77;5.03;;;;;;;12.12;100.00;101010.75;5133204;27;20172;-74
2021/09/08 03:42:05;;;;;;;5.33;4.83;;;;;;;12.17;100.00;101004.34;5133256;27;20172;-74
2021/09/08 03:44:31;;;;;;;7.90;5.37;;;;;;;12.16;100.00;101005.47;5133372;27;20161;-74
2021/09/08 03:46:56;;;;;;;5.23;4.83;;;;;;;12.15;100.00;100998.34;5132760;27;20173;-74
2021/09/08 03:49:21;;;;;;;4.80;4.40;;;;;;;12.08;100.00;100993.31;5133015;27;20284;-74
2021/09/08 03:51:47;;;;;;;6.97;4.57;;;;;;;12.09;100.00;100994.94;5133004;27;20237;-74
2021/09/08 03:54:12;;;;;;;4.23;3.83;;;;;;;11.97;100.00;100999.31;5132879;27;20275;-74
2021/09/08 03:56:38;;;;;;;5.40;4.70;;;;;;;11.96;100.00;101000.44;5132907;27;20197;-74
2021/09/08 03:59:03;;;;;;;3.87;3.57;;;;;;;11.96;100.00;100994.94;5132791;27;20173;-74
2021/09/08 04:01:28;;;;;;;3.80;3.50;;;;;;;11.92;100.00;100994.75;5132910;27;20540;-74
2021/09/08 04:03:54;;;;;;;3.60;3.30;;;;;;;11.88;100.00;100982.81;5132462;27;20188;-74
2021/09/08 04:06:19;;;;;;;3.70;3.40;;;;;;;11.84;100.00;100988.06;5132823;27;20425;-73
2021/09/08 04:08:44;;;;;;;6.57;3.63;;;;;;;11.86;100.00;100985.00;5132655;27;20169;-74
2021/09/08 04:11:10;;;;;;;4.10;3.80;;;;;;;11.93;100.00;100988.16;5132568;27;20237;-74
2021/09/08 04:13:36;;;;;;;3.80;3.50;;;;;;;11.99;100.00;100994.31;5132394;27;20173;-74
2021/09/08 04:16:02;;;;;;;3.63;3.33;;;;;;;11.99;100.00;100983.38;5114104;27;20369;-74
2021/09/08 04:18:27;;;;;;;4.10;3.70;;;;;;;11.97;100.00;100982.88;5132695;27;20172;-74
2021/09/08 04:20:53;;;;;;;4.07;3.73;;;;;;;11.86;100.00;100980.38;5132489;27;20273;-74
2021/09/08 04:23:18;;;;;;;5.67;3.57;;;;;;;11.87;100.00;100981.19;5132391;27;20169;-74
2021/09/08 04:25:43;;;;;;;3.87;3.10;;;;;;;11.89;100.00;100987.16;5132715;27;20178;-74
2021/09/08 04:28:09;;;;;;;4.27;3.87;;;;;;;11.92;100.00;100978.34;5132311;27;20172;-74
2021/09/08 04:30:34;;;;;;;4.67;4.27;;;;;;;11.92;100.00;100972.84;5132359;27;20655;-75
2021/09/08 04:32:59;;;;;;;3.93;3.63;;;;;;;11.93;100.00;100969.00;5132296;27;20176;-73
2021/09/08 04:35:25;;;;;;;4.47;4.07;;;;;;;11.93;100.00;100976.41;5131992;27;20616;-74
2021/09/08 04:37:50;;;;;;;4.57;4.17;;;;;;;11.99;100.00;100966.94;5132100;27;20176;-74
2021/09/08 04:40:15;;;;;;;4.70;4.30;;;;;;;11.99;100.00;100967.75;5132049;27;20200;-74
2021/09/08 04:42:41;;;;;;;4.80;4.20;;;;;;;12.05;100.00;100982.16;5131580;27;20168;-74
2021/09/08 04:45:07;;;;;;;5.17;4.10;;;;;;;12.13;100.00;100970.47;5131878;27;20172;-74
2021/09/08 04:47:32;;;;;;;4.43;4.03;;;;;;;12.11;100.00;100972.69;5113382;27;20180;-74
2021/09/08 04:49:57;;;;;;;4.50;4.10;;;;;;;12.05;100.00;100976.69;5131769;27;20180;-75
2021/09/08 04:52:23;;;;;;;4.53;4.13;;;;;;;12.02;100.00;100978.13;5131985;27;20168;-74
2021/09/08 04:54:49;;;;;;;5.00;4.50;;;;;;;11.97;100.00;100978.22;5131696;27;20184;-74
2021/09/08 04:57:14;;;;;;;5.27;4.40;;;;;;;11.81;100.00;100976.94;5131865;27;20176;-74
2021/09/08 04:59:39;;;;;;;4.90;4.13;;;;;;;11.77;100.00;100976.69;5132020;27;20176;-73
2021/09/08 05:02:04;;;;;;;4.60;4.20;;;;;;;12.00;100.00;100987.72;5131831;27;20173;-74
2021/09/08 05:04:30;;;;;;;5.57;4.77;;;;;;;12.06;100.00;100984.59;5131723;27;20184;-74
2021/09/08 05:06:55;;;;;;;4.67;4.20;;;;;;;12.06;100.00;100983.78;5131790;27;20525;-74
2021/09/08 05:09:21;;;;;;;8.00;3.87;;;;;;;11.95;100.00;100980.44;5131523;27;20337;-74
2021/09/08 05:11:46;;;;;;;6.10;5.60;;;;;;;11.96;100.00;100984.00;5131619;27;20231;-73
2021/09/08 05:14:11;;;;;;;5.37;4.87;;;;;;;12.11;100.00;100978.19;5131492;28;20187;-74
2021/09/08 05:16:37;;;;;;;5.33;4.83;;;;;;;12.21;100.00;100978.78;5131582;28;20164;-74
2021/09/08 05:19:03;;;;;;;5.10;4.70;;;;;;;12.29;100.00;100976.41;5131593;28;20176;-73
2021/09/08 05:21:28;;;;;;;5.30;4.80;;;;;;;12.34;100.00;100971.63;5131600;28;20177;-74
2021/09/08 05:23:54;;;;;;;5.43;4.93;;;;;;;12.44;100.00;100968.66;5113070;28;20204;-74
2021/09/08 05:26:19;;;;;;;6.83;4.50;;;;;;;12.47;100.00;100969.97;5131470;28;20221;-74
2021/09/08 05:28:45;;;;;;;4.93;4.23;;;;;;;12.45;100.00;100969.47;5131472;28;20175;-74
2021/09/08 05:31:10;;;;;;;5.13;4.57;;;;;;;12.54;100.00;100966.75;5131362;27;20211;-74
2021/09/08 05:33:35;;;;;;;5.33;4.93;;;;;;;12.60;100.00;100966.34;5112890;28;20184;-75
2021/09/08 05:36:01;;;;;;;4.57;4.23;;;;;;;12.56;100.00;100970.00;5113155;28;20182;-76
2021/09/08 05:38:26;;;;;;;5.30;4.80;;;;;;;12.62;100.00;100971.50;5112979;28;20204;-76
2021/09/08 05:40:51;;;;;;;5.03;4.43;;;;;;;12.73;100.00;100968.22;5131503;28;20688;-75
2021/09/08 05:43:17;;;;;;;5.87;5.27;;;;;;;12.80;100.00;100973.25;5131295;28;20180;-76
2021/09/08 05:45:43;;;;;;;6.20;5.23;;;;;;;12.83;100.00;100964.38;5131246;27;20631;-76
2021/09/08 05:48:09;;;;;;;4.63;4.17;;;;;;;12.83;100.00;100975.34;5131179;27;20710;-76
2021/09/08 05:50:34;;;;;;;5.10;4.53;;;;;;;12.88;100.00;100966.19;5131157;28;20806;-75
2021/09/08 05:53:03;;;;;;;5.87;4.70;;;;;;;12.86;100.00;100985.69;5131556;28;20187;-74
2021/09/08 05:55:29;;;;;;;5.67;5.17;;;;;;;12.88;100.00;100988.94;5133245;27;20609;-76
2021/09/08 05:57:54;;;;;;;5.93;5.33;;;;;;;12.90;100.00;100981.22;5135336;27;20200;-75
2021/09/08 06:00:19;;;;;;;5.57;5.07;;;;;;;12.96;100.00;100984.63;5135292;27;20199;-75
2021/09/08 06:02:45;;;;;;;6.30;5.70;;;;;;;12.99;100.00;100973.00;5135140;27;20635;-75
2021/09/08 06:05:10;;;;;;;5.67;5.17;;;;;;;13.06;100.00;100974.19;5134819;27;20259;-75
2021/09/08 06:07:35;;;;;;;6.73;6.13;;;;;;;13.08;100.00;100971.94;5135044;27;20638;-76
2021/09/08 06:10:01;;;;;;;7.27;5.83;;;;;;;13.16;100.00;100977.78;5134927;27;20181;-74
2021/09/08 06:12:26;;;;;;;7.77;7.07;;;;;;;13.18;100.00;100981.88;5135009;27;20572;-74
2021/09/08 06:14:51;;;;;;;7.37;6.60;;;;;;;13.25;100.00;100975.94;5134734;27;20179;-74
2021/09/08 06:17:17;;;;;;;6.93;6.13;;;;;;;13.30;100.00;100973.84;5134812;27;20168;-72
2021/09/08 06:19:42;;;;;;;7.27;6.57;;;;;;;13.35;100.00;100976.47;5134855;27;20583;-72
2021/09/08 06:22:07;;;;;;;6.97;6.30;;;;;;;13.42;100.00;100978.72;5134776;27;20316;-73
2021/09/08 06:24:33;;;;;;;7.03;6.43;;;;;;;13.52;100.00;100980.41;5134595;27;20195;-73
2021/09/08 06:26:59;;;;;;;6.13;5.63;;;;;;;13.57;100.00;100977.50;5134737;27;20643;-73
2021/09/08 06:29:25;;;;;;;7.03;6.10;;;;;;;13.63;100.00;100982.53;5134674;27;20293;-72
2021/09/08 06:31:50;;;;;;;7.50;6.80;;;;;;;13.69;100.00;100981.25;5134369;27;20216;-72
2021/09/08 06:34:15;;;;;;;7.70;7.00;;;;;;;13.77;100.00;100981.59;5134235;27;20173;-75
2021/09/08 06:36:41;;;;;;;6.50;5.90;;;;;;;13.84;100.00;100976.44;5134690;27;20492;-74
2021/09/08 06:39:06;;;;;;;6.07;5.57;;;;;;;13.83;100.00;100980.31;5134117;27;20268;-74
2021/09/08 06:41:32;;;;;;;6.43;5.93;;;;;;;13.91;100.00;100974.03;5134382;27;20176;-73
2021/09/08 06:43:57;;;;;;;10.57;6.43;;;;;;;13.90;100.00;100970.50;5134116;27;20220;-74
2021/09/08 06:46:22;;;;;;;10.70;7.10;;;;;;;14.14;100.00;100970.00;5134099;27;20665;-73
2021/09/08 06:48:48;;;;;;;6.93;6.23;;;;;;;14.17;100.00;100974.84;5134204;27;20721;-77
2021/09/08 06:51:13;;;;;;;9.23;6.30;;;;;;;14.23;100.00;100973.59;5134172;27;20671;-75
2021/09/08 06:53:38;;;;;;;9.90;6.97;;;;;;;14.31;100.00;100974.69;5134009;27;20175;-74
2021/09/08 06:56:06;;;;;;;6.60;5.33;;;;;;;14.39;100.00;100959.34;5134147;27;20616;-79
2021/09/08 06:58:31;;;;;;;7.13;6.43;;;;;;;14.61;100.00;100963.88;5133805;27;20173;-72
2021/09/08 07:00:56;;;;;;;6.80;6.00;;;;;;;14.79;100.00;100973.75;5133930;27;20176;-72
2021/09/08 07:03:22;;;;;;;9.43;6.20;;;;;;;14.92;100.00;100966.44;5133930;27;20716;-72
2021/09/08 07:05:47;;;;;;;5.80;5.30;;;;;;;14.87;100.00;100961.88;5133240;27;20591;-72
2021/09/08 07:08:15;;;;;;;6.80;5.73;;;;;;;14.97;100.00;100955.25;5133900;27;20172;-72
2021/09/08 07:10:41;;;;;;;6.70;6.00;;;;;;;15.06;100.00;100964.28;5133598;27;20188;-73
2021/09/08 07:13:06;;;;;;;6.43;5.83;;;;;;;15.09;100.00;100958.13;5133917;27;20179;-73
2021/09/08 07:15:32;;;;;;;5.67;5.10;;;;;;;15.14;100.00;100968.94;5133478;27;20169;-74
2021/09/08 07:17:57;;;;;;;10.37;5.70;;;;;;;15.21;100.00;100954.69;5133526;27;20207;-73
2021/09/08 07:20:23;;;;;;;7.53;5.63;;;;;;;15.28;100.00;100961.28;5133755;27;20531;-73
2021/09/08 07:22:49;;;;;;;6.17;5.57;;;;;;;15.34;100.00;100959.97;5133415;27;20169;-73
2021/09/08 07:25:14;;;;;;;7.00;6.40;;;;;;;15.40;100.00;100949.56;5133198;27;20173;-73
2021/09/08 07:27:40;;;;;;;7.20;6.20;;;;;;;15.42;100.00;100953.59;5133543;27;20183;-73
2021/09/08 07:30:05;;;;;;;7.40;6.67;;;;;;;15.55;100.00;100948.19;5133266;27;20204;-73
2021/09/08 07:32:31;;;;;;;6.93;6.23;;;;;;;15.64;100.00;100946.25;5133413;27;20173;-73
2021/09/08 07:34:58;;;;;;;6.73;6.13;;;;;;;15.72;100.00;100948.94;5114784;27;20172;-73
2021/09/08 07:37:25;;;;;;;8.27;7.57;;;;;;;15.80;100.00;100946.47;5133226;27;20224;-73
2021/09/08 07:39:51;;;;;;;8.20;7.03;;;;;;;15.89;100.00;100956.28;5133169;27;20184;-73
2021/09/08 07:42:16;;;;;;;8.60;7.80;;;;;;;16.02;100.00;100948.88;5133134;27;20593;-73
2021/09/08 07:44:43;;;;;;;12.70;7.43;;;;;;;16.09;100.00;100946.41;5132664;27;20707;-73
2021/09/08 07:47:09;;;;;;;8.03;6.33;;;;;;;16.20;100.00;100941.28;5132835;27;20172;-73
2021/09/08 07:49:34;;;;;;;8.07;7.37;;;;;;;16.30;100.00;100941.69;5132825;27;20180;-72
2021/09/08 07:51:59;;;;;;;9.30;8.60;;;;;;;16.35;100.00;100943.47;5132691;27;20207;-73
2021/09/08 07:54:26;;;;;;;9.37;7.70;;;;;;;16.50;100.00;100944.78;5132564;27;20462;-74
2021/09/08 07:56:51;;;;;;;9.50;8.60;;;;;;;16.62;100.00;100945.59;5132639;27;20168;-74
2021/09/08 07:59:17;;;;;;;11.47;7.53;;;;;;;16.62;100.00;100940.09;5132726;27;20648;-73
2021/09/08 08:01:42;;;;;;;9.50;8.50;;;;;;;16.70;100.00;100940.38;5132674;27;20577;-73
2021/09/08 08:04:09;;;;;;;9.93;7.07;;;;;;;16.76;100.00;100941.78;5132417;27;20554;-73
2021/09/08 08:06:35;;;;;;;8.60;7.77;;;;;;;16.85;100.00;100939.72;5132577;27;20520;-73
2021/09/08 08:09:00;;;;;;;10.50;7.87;;;;;;;16.99;100.00;100942.97;5132899;27;20177;-73
2021/09/08 08:11:26;;;;;;;8.90;8.00;;;;;;;17.06;100.00;100942.41;5132341;27;20655;-74
2021/09/08 08:13:52;;;;;;;15.27;7.63;;;;;;;17.17;100.00;100940.81;5132272;27;20196;-73
2021/09/08 08:16:18;;;;;;;8.80;6.47;;;;;;;17.23;100.00;100939.47;5132053;27;20173;-73
2021/09/08 08:18:43;;;;;;;8.90;8.00;;;;;;;17.39;100.00;100943.16;5131110;27;20168;-73
2021/09/08 08:21:08;;;;;;;9.13;6.53;;;;;;;17.39;100.00;100945.09;5132002;27;20172;-73
2021/09/08 08:23:34;;;;;;;11.73;6.17;;;;;;;17.50;100.00;100943.47;5132237;27;20169;-73
2021/09/08 08:25:59;;;;;;;7.93;7.23;;;;;;;17.67;98.95;100950.75;5139305;27;20177;-73
2021/09/08 08:28:25;;;;;;;7.63;6.93;;;;;;;17.68;98.31;100944.88;5140443;27;20825;-73
2021/09/08 08:30:52;;;;;;;7.73;6.37;;;;;;;17.88;95.17;100972.72;5132447;27;20204;-80
2021/09/08 08:33:17;;;;;;;9.20;6.50;;;;;;;17.91;95.71;100966.50;5132628;27;20173;-73
2021/09/08 08:35:43;;;;;;;10.70;6.50;;;;;;;17.90;94.32;100970.41;5132296;27;20217;-72
2021/09/08 08:38:08;;;;;;;10.83;6.57;;;;;;;18.00;94.22;100959.69;5132168;27;20538;-73
2021/09/08 08:40:34;;;;;;;10.07;6.73;;;;;;;18.09;92.77;100951.28;5132028;27;20184;-73
2021/09/08 08:43:00;;;;;;;7.40;6.70;;;;;;;18.15;92.95;100949.88;5132290;27;20267;-73
2021/09/08 08:45:27;;;;;;;10.63;7.10;;;;;;;18.30;92.39;100943.59;5131923;27;20263;-73
2021/09/08 08:47:53;;;;;;;7.17;6.10;;;;;;;18.37;90.33;100943.81;5131934;27;20173;-73
2021/09/08 08:50:18;;;;;;;6.93;6.03;;;;;;;18.47;87.46;100938.91;5132005;27;20173;-73
2021/09/08 08:52:45;;;;;;;6.70;6.10;;;;;;;18.47;89.40;100945.25;5131897;27;20547;-72
2021/09/08 08:55:11;;;;;;;7.40;6.57;;;;;;;18.49;87.84;100936.59;5113351;27;20215;-73
2021/09/08 08:57:36;;;;;;;7.50;6.20;;;;;;;18.54;91.20;100941.88;5131963;27;20538;-73
2021/09/08 09:00:04;;;;;;;7.63;6.43;;;;;;;18.55;88.76;100936.00;5113497;27;20644;-73
2021/09/08 09:02:31;;;;;;;11.73;7.20;;;;;;;18.65;89.55;100940.22;5131845;27;20173;-73
2021/09/08 09:04:59;;;;;;;8.37;7.57;;;;;;;18.78;90.48;100930.69;5113005;27;20727;-73
2021/09/08 09:07:30;;;;;;;7.20;6.33;;;;;;;18.81;86.23;100931.97;5131724;27;20334;-73
2021/09/08 09:10:06;;;;;;;7.40;6.47;;;;;;;18.95;88.44;100927.63;5131882;27;20172;-73
2021/09/08 09:12:35;;;;;;;6.83;6.20;;;;;;;18.96;86.90;100928.44;5131815;27;20187;-73
2021/09/08 09:15:05;;;;;;;10.37;5.97;;;;;;;18.98;84.44;100928.88;5131453;27;20180;-73
2021/09/08 09:17:32;;;;;;;6.03;5.50;;;;;;;19.14;86.40;100921.38;5131784;28;20571;-73
2021/09/08 09:20:03;;;;;;;6.03;5.43;;;;;;;19.19;79.79;100925.81;5131747;28;20186;-73
2021/09/08 09:22:49;;;;;;;5.93;5.33;;;;;;;19.21;81.49;100916.00;5131378;28;20180;-73
2021/09/08 09:25:18;;;;;;;5.50;5.00;;;;;;;19.27;82.43;100916.53;5131117;28;20168;-73
2021/09/08 09:27:49;;;;;;;6.27;4.93;;;;;;;19.23;80.65;100910.88;5131696;28;20491;-73
2021/09/08 09:30:18;;;;;;;5.43;4.93;;;;;;;19.32;81.38;100908.75;5133734;27;20188;-73
2021/09/08 09:32:47;;;;;;;4.87;4.47;;;;;;;19.56;82.35;100921.63;5129448;27;20177;-73
2021/09/08 09:35:16;;;;;;;5.50;4.97;;;;;;;19.78;84.66;100905.47;5135127;27;20181;-73
2021/09/08 09:37:46;;;;;;;5.03;4.63;;;;;;;19.89;78.59;100910.09;5135490;27;20194;-73
2021/09/08 09:40:14;;;;;;;4.87;4.47;;;;;;;19.97;78.72;100896.38;5135201;27;20207;-73
2021/09/08 09:42:40;;;;;;;5.77;4.57;;;;;;;19.94;75.86;100892.34;5135133;27;20169;-73
2021/09/08 09:45:08;;;;;;;5.33;4.83;;;;;;;19.91;73.87;100890.31;5135136;27;20179;-73
2021/09/08 09:47:39;;;;;;;5.13;4.53;;;;;;;20.01;74.72;100895.28;5134944;27;20544;-73
2021/09/08 09:50:11;;;;;;;5.80;5.20;;;;;;;20.04;75.60;100893.75;5131345;27;20173;-73
2021/09/08 09:52:37;;;;;;;4.80;4.40;;;;;;;20.18;77.65;100891.28;5125165;27;20269;-73
2021/09/08 09:55:04;;;;;;;4.80;4.30;;;;;;;20.17;77.41;100890.47;5135311;27;20279;-73
2021/09/08 09:57:30;;;;;;;5.00;4.50;;;;;;;20.18;75.16;100880.16;5116593;27;20173;-73
2021/09/08 09:59:57;;;;;;;4.87;4.47;;;;;;;20.26;76.45;100884.69;5135058;27;20255;-73
2021/09/08 10:02:23;;;;;;;4.43;4.03;;;;;;;20.35;75.81;100884.47;5130161;27;20185;-73
2021/09/08 10:04:51;;;;;;;4.40;3.87;;;;;;;20.47;75.47;100873.22;5134768;27;20716;-73
2021/09/08 10:07:19;;;;;;;5.60;4.43;;;;;;;20.50;75.16;100864.97;5134849;27;20222;-73
2021/09/08 10:09:49;;;;;;;4.80;3.77;;;;;;;20.56;73.50;100859.94;5134963;27;20562;-74
2021/09/08 10:12:16;;;;;;;5.17;4.67;;;;;;;20.58;72.63;100851.22;5135126;27;20249;-74
2021/09/08 10:14:44;;;;;;;4.40;4.00;;;;;;;20.68;73.06;100848.63;5134840;27;20218;-73
2021/09/08 10:17:10;;;;;;;4.67;4.27;;;;;;;20.91;73.39;100854.19;5134882;27;20349;-73
2021/09/08 10:19:39;;;;;;;7.03;4.33;;;;;;;20.99;71.58;100847.59;5135390;27;20566;-73
2021/09/08 10:22:08;;;;;;;4.17;3.77;;;;;;;21.04;70.73;100836.13;5116397;27;20177;-73
2021/09/08 10:24:33;;;;;;;5.03;4.63;;;;;;;21.10;68.99;100842.97;5134556;27;20169;-73
2021/09/08 10:27:00;;;;;;;5.00;4.60;;;;;;;21.14;68.35;100834.72;5134749;27;20512;-75
2021/09/08 10:29:27;;;;;;;4.83;4.40;;;;;;;21.16;67.57;100823.22;5134770;27;20177;-75
2021/09/08 10:31:54;;;;;;;6.57;4.60;;;;;;;21.33;73.75;100829.06;5134587;27;20292;-75
2021/09/08 10:34:20;;;;;;;4.80;4.50;;;;;;;21.39;69.47;100826.75;5134299;27;20191;-75
2021/09/08 10:36:46;;;;;;;4.17;3.77;;;;;;;21.40;66.20;100825.56;5134466;27;20232;-75
2021/09/08 10:39:15;;;;;;;5.10;3.90;;;;;;;21.51;66.76;100825.72;5134436;27;20179;-75
2021/09/08 10:41:46;;;;;;;3.83;3.13;;;;;;;21.58;65.07;100825.84;5133468;27;20542;-75
2021/09/08 10:44:15;;;;;;;4.27;3.87;;;;;;;21.72;66.07;100816.88;5134013;27;20181;-75
2021/09/08 10:46:57;;;;;;;5.23;4.13;;;;;;;21.89;65.07;100819.88;5134080;27;20177;-75
2021/09/08 10:49:38;;;;;;;4.20;3.90;;;;;;;21.90;64.05;100815.13;5134326;27;20170;-75
2021/09/08 10:52:06;;;;;;;5.37;4.30;;;;;;;21.82;64.50;100805.88;5134238;27;20211;-75
2021/09/08 10:54:31;;;;;;;4.23;3.83;;;;;;;21.91;64.62;100798.03;5133858;27;20179;-75
2021/09/08 10:56:58;;;;;;;4.57;4.03;;;;;;;21.98;63.91;100795.31;5134042;27;20178;-75
2021/09/08 10:59:24;;;;;;;4.63;4.20;;;;;;;21.98;63.92;100789.75;5134311;27;20218;-75
2021/09/08 11:01:53;;;;;;;5.67;4.07;;;;;;;22.00;64.86;100792.19;5115629;27;20259;-75
2021/09/08 11:04:18;;;;;;;4.40;4.03;;;;;;;22.08;63.55;100790.31;5133719;27;20188;-74
2021/09/08 11:06:47;;;;;;;4.20;3.80;;;;;;;22.22;64.21;100793.25;5134023;27;20203;-74
2021/09/08 11:09:15;;;;;;;4.37;3.93;;;;;;;22.31;63.40;100790.97;5133905;27;20176;-75
2021/09/08 11:11:57;;;;;;;3.97;3.63;;;;;;;22.51;64.99;100783.19;5133884;27;20212;-75
2021/09/08 11:14:44;;;;;;;3.97;3.67;;;;;;;22.41;59.95;100773.53;5133642;27;20175;-75